createdAt,value
2023-02-06T00:00:30.845Z,6.10
2023-02-06T00:03:32.819Z,4.23
2023-02-06T00:06:35.186Z,6.57
2023-02-06T00:09:37.281Z,6.20
2023-02-06T00:12:39.257Z,6.57
2023-02-06T00:15:41.332Z,7.03
2023-02-06T00:18:43.388Z,7.73
2023-02-06T00:21:45.457Z,6.03
2023-02-06T00:24:47.438Z,4.50
2023-02-06T00:27:49.510Z,6.47
2023-02-06T00:30:51.745Z,6.10
2023-02-06T00:33:53.803Z,7.53
2023-02-06T00:36:55.836Z,6.17
2023-02-06T00:39:57.797Z,7.43
2023-02-06T00:42:59.847Z,7.77
2023-02-06T00:46:01.824Z,5.43
2023-02-06T00:49:04.038Z,11.23
2023-02-06T00:52:06.022Z,8.13
2023-02-06T00:55:08.339Z,7.07
2023-02-06T00:58:10.477Z,7.40
2023-02-06T01:01:12.533Z,6.90
2023-02-06T01:04:14.518Z,5.77
2023-02-06T01:07:16.536Z,8.17
2023-02-06T01:10:18.699Z,9.53
2023-02-06T01:13:20.829Z,25.17
2023-02-06T01:16:24.921Z,24.73
2023-02-06T01:19:27.970Z,15.20
2023-02-06T01:22:29.965Z,18.73
2023-02-06T01:25:32.369Z,14.60
2023-02-06T01:28:40.945Z,12.87
2023-02-06T01:31:43.885Z,10.57
2023-02-06T01:34:46.075Z,11.60
2023-02-06T01:37:48.023Z,8.47
2023-02-06T01:40:50.034Z,12.67
2023-02-06T01:44:22.128Z,16.07
2023-02-06T01:47:24.183Z,15.13
2023-02-06T01:50:26.525Z,11.57
2023-02-06T01:53:29.972Z,11.80
2023-02-06T01:56:37.132Z,11.77
2023-02-06T01:59:42.498Z,9.50
2023-02-06T02:02:48.564Z,9.17
2023-02-06T02:05:52.797Z,7.30
2023-02-06T02:08:58.323Z,9.00
2023-02-06T02:12:01.217Z,8.20
2023-02-06T02:15:04.469Z,9.67
2023-02-06T02:18:21.340Z,8.83
2023-02-06T02:21:56.338Z,10.83
2023-02-06T02:24:58.265Z,9.27
2023-02-06T02:28:15.116Z,7.27
2023-02-06T02:32:05.840Z,7.73
2023-02-06T02:35:30.679Z,10.20
2023-02-06T02:38:59.716Z,8.23
2023-02-06T02:42:19.188Z,8.30
2023-02-06T02:45:53.194Z,8.30
2023-02-06T02:49:00.602Z,8.27
2023-02-06T02:52:03.616Z,9.93
2023-02-06T02:55:17.766Z,10.20
2023-02-06T02:58:26.764Z,9.13
2023-02-06T03:01:47.173Z,7.03
2023-02-06T03:05:01.033Z,8.77
2023-02-06T03:08:10.793Z,11.83
2023-02-06T03:11:16.741Z,8.37
2023-02-06T03:14:34.524Z,8.37
2023-02-06T03:18:12.766Z,9.80
2023-02-06T03:21:19.473Z,9.17
2023-02-06T03:24:25.437Z,9.03
2023-02-06T03:27:29.837Z,9.33
2023-02-06T03:30:33.426Z,8.93
2023-02-06T03:33:50.154Z,8.97
2023-02-06T03:36:53.330Z,6.77
2023-02-06T03:39:58.088Z,9.60
2023-02-06T03:43:03.472Z,8.57
2023-02-06T03:46:06.883Z,8.80
2023-02-06T03:49:12.376Z,7.67
2023-02-06T03:52:19.935Z,10.53
2023-02-06T03:55:24.138Z,9.43
2023-02-06T03:58:26.273Z,8.73
2023-02-06T04:01:28.500Z,7.73
2023-02-06T04:04:35.522Z,8.03
2023-02-06T04:07:37.696Z,9.17
2023-02-06T04:10:39.658Z,7.43
2023-02-06T04:13:41.801Z,7.50
2023-02-06T04:16:43.818Z,7.17
2023-02-06T04:19:45.867Z,8.67
2023-02-06T04:22:48.131Z,7.90
2023-02-06T04:25:50.174Z,8.73
2023-02-06T04:28:52.259Z,11.20
2023-02-06T04:31:54.319Z,9.00
2023-02-06T04:34:56.276Z,8.70
2023-02-06T04:37:58.311Z,9.73
2023-02-06T04:41:06.168Z,9.57
2023-02-06T04:44:08.127Z,9.20
2023-02-06T04:47:10.172Z,9.23
2023-02-06T04:50:12.187Z,9.03
2023-02-06T04:53:14.186Z,9.97
2023-02-06T04:56:16.442Z,7.93
2023-02-06T04:59:18.469Z,6.87
2023-02-06T05:02:20.554Z,8.93
2023-02-06T05:05:22.612Z,7.73
2023-02-06T05:08:24.610Z,9.33
2023-02-06T05:11:26.992Z,7.57
2023-02-06T05:14:28.985Z,9.13
2023-02-06T05:17:31.001Z,8.30
2023-02-06T05:20:33.103Z,10.73
2023-02-06T05:23:35.181Z,8.90
2023-02-06T05:26:37.185Z,7.10
2023-02-06T05:29:39.202Z,9.03
2023-02-06T05:32:41.869Z,8.43
2023-02-06T05:35:43.861Z,8.93
2023-02-06T05:38:45.986Z,7.40
2023-02-06T05:41:47.978Z,7.67
2023-02-06T05:44:49.985Z,8.93
2023-02-06T05:47:53.966Z,8.43
2023-02-06T05:50:56.050Z,8.40
2023-02-06T05:53:58.122Z,9.43
2023-02-06T05:57:00.153Z,9.33
2023-02-06T06:00:02.626Z,12.17
2023-02-06T06:03:13.602Z,9.20
2023-02-06T06:06:15.667Z,7.67
2023-02-06T06:09:17.728Z,11.13
2023-02-06T06:12:19.745Z,7.93
2023-02-06T06:15:21.684Z,11.03
2023-02-06T06:18:23.798Z,11.10
2023-02-06T06:21:25.840Z,9.93
2023-02-06T06:24:27.865Z,10.03
2023-02-06T06:27:29.834Z,8.40
2023-02-06T06:30:32.588Z,9.40
2023-02-06T06:33:35.771Z,10.73
2023-02-06T06:36:37.755Z,8.80
2023-02-06T06:39:39.782Z,10.53
2023-02-06T06:42:41.789Z,11.87
2023-02-06T06:45:43.794Z,7.40
2023-02-06T06:48:45.846Z,9.60
2023-02-06T06:51:47.816Z,8.67
2023-02-06T06:54:51.437Z,8.10
2023-02-06T06:57:54.362Z,8.60
2023-02-06T07:00:57.107Z,8.03
2023-02-06T07:04:00.541Z,7.73
2023-02-06T07:07:02.574Z,8.80
2023-02-06T07:10:05.052Z,9.97
2023-02-06T07:13:07.113Z,7.53
2023-02-06T07:16:09.312Z,6.67
2023-02-06T07:19:11.387Z,7.20
2023-02-06T07:22:13.574Z,8.30
2023-02-06T07:25:15.972Z,8.10
2023-02-06T07:28:18.076Z,7.20
2023-02-06T07:31:20.250Z,10.93
2023-02-06T07:34:22.336Z,6.67
2023-02-06T07:37:24.314Z,6.67
2023-02-06T07:40:27.697Z,7.67
2023-02-06T07:43:35.948Z,8.60
2023-02-06T07:46:38.033Z,7.10
2023-02-06T07:49:40.175Z,8.37
2023-02-06T07:52:42.193Z,9.50
2023-02-06T07:55:44.263Z,7.90
2023-02-06T07:58:51.580Z,7.80
2023-02-06T08:01:53.651Z,9.97
2023-02-06T08:04:55.639Z,9.13
2023-02-06T08:07:57.939Z,8.40
2023-02-06T08:10:59.895Z,8.23
2023-02-06T08:14:02.879Z,8.27
2023-02-06T08:17:05.255Z,9.80
2023-02-06T08:20:07.516Z,10.37
2023-02-06T08:23:09.536Z,9.23
2023-02-06T08:26:17.577Z,9.00
2023-02-06T08:29:19.729Z,7.90
2023-02-06T08:32:21.810Z,8.10
2023-02-06T08:35:23.961Z,10.77
2023-02-06T08:38:26.017Z,11.00
2023-02-06T08:41:48.520Z,10.50
2023-02-06T08:44:50.543Z,9.60
2023-02-06T08:47:52.562Z,10.47
2023-02-06T08:51:05.533Z,9.33
2023-02-06T08:54:11.965Z,8.80
2023-02-06T08:57:14.095Z,10.70
2023-02-06T09:00:17.883Z,8.97
2023-02-06T09:03:21.385Z,10.20
2023-02-06T09:06:25.933Z,10.00
2023-02-06T09:09:27.917Z,9.87
2023-02-06T09:12:29.885Z,10.53
2023-02-06T09:15:32.004Z,8.40
2023-02-06T09:18:34.973Z,8.80
2023-02-06T09:21:37.380Z,14.20
2023-02-06T09:24:39.400Z,10.37
2023-02-06T09:27:41.409Z,9.53
2023-02-06T09:30:43.426Z,10.47
2023-02-06T09:33:45.495Z,9.60
2023-02-06T09:36:47.650Z,7.73
2023-02-06T09:39:49.661Z,8.83
2023-02-06T09:42:53.672Z,12.00
2023-02-06T09:46:00.835Z,9.13
2023-02-06T09:49:17.268Z,8.60
2023-02-06T09:52:41.716Z,9.90
2023-02-06T09:55:54.842Z,8.37
2023-02-06T09:59:11.333Z,12.83
2023-02-06T10:02:50.764Z,9.27
2023-02-06T10:06:13.513Z,10.97
2023-02-06T10:09:21.695Z,9.13
2023-02-06T10:12:31.175Z,10.60
2023-02-06T10:15:40.709Z,10.43
2023-02-06T10:18:48.657Z,8.67
2023-02-06T10:22:01.386Z,9.23
2023-02-06T10:25:19.174Z,8.83
2023-02-06T10:28:29.949Z,9.37
2023-02-06T10:31:53.952Z,8.40
2023-02-06T10:35:29.798Z,8.83
2023-02-06T10:38:43.771Z,9.13
2023-02-06T10:42:20.568Z,8.30
2023-02-06T10:45:39.723Z,7.70
2023-02-06T10:48:49.260Z,8.73
2023-02-06T10:51:58.788Z,9.23
2023-02-06T10:55:23.693Z,8.57
2023-02-06T10:58:31.304Z,7.37
2023-02-06T11:01:38.436Z,9.70
2023-02-06T11:04:47.855Z,7.97
2023-02-06T11:07:54.015Z,8.30
2023-02-06T11:10:56.801Z,6.77
2023-02-06T11:14:20.917Z,10.43
2023-02-06T11:17:24.596Z,8.10
2023-02-06T11:20:30.709Z,7.93
2023-02-06T11:23:35.138Z,8.50
2023-02-06T11:26:46.745Z,7.10
2023-02-06T11:29:52.167Z,8.33
2023-02-06T11:33:04.597Z,6.83
2023-02-06T11:36:22.987Z,8.57
2023-02-06T11:39:42.803Z,8.10
2023-02-06T11:42:46.278Z,7.87
2023-02-06T11:45:52.366Z,7.47
2023-02-06T11:48:58.783Z,6.40
2023-02-06T11:52:01.362Z,8.90
2023-02-06T11:55:04.764Z,9.13
2023-02-06T11:58:12.651Z,8.63
2023-02-06T12:01:20.658Z,8.57
2023-02-06T12:04:35.367Z,10.07
2023-02-06T12:08:02.448Z,7.43
2023-02-06T12:11:12.453Z,5.30
2023-02-06T12:14:36.300Z,6.43
2023-02-06T12:17:42.772Z,7.60
2023-02-06T12:20:50.356Z,7.33
2023-02-06T12:24:00.460Z,8.70
2023-02-06T12:27:17.592Z,7.43
2023-02-06T12:30:32.075Z,7.57
2023-02-06T12:33:40.494Z,7.23
2023-02-06T12:37:21.406Z,8.07
2023-02-06T12:40:40.560Z,8.53
2023-02-06T12:43:47.306Z,8.43
2023-02-06T12:46:57.945Z,6.63
2023-02-06T12:50:15.882Z,10.13
2023-02-06T12:53:44.889Z,6.43
2023-02-06T12:56:59.414Z,8.90
2023-02-06T13:00:27.512Z,6.60
2023-02-06T13:03:35.026Z,7.73
2023-02-06T13:06:48.277Z,5.80
2023-02-06T13:09:59.966Z,6.20
2023-02-06T13:13:02.102Z,7.00
2023-02-06T13:16:05.575Z,6.57
2023-02-06T13:19:21.851Z,7.57
2023-02-06T13:23:03.646Z,6.77
2023-02-06T13:26:05.690Z,8.03
2023-02-06T13:29:27.659Z,7.67
2023-02-06T13:32:32.326Z,7.87
2023-02-06T13:35:34.565Z,6.50
2023-02-06T13:38:38.997Z,7.70
2023-02-06T13:41:42.700Z,7.20
2023-02-06T13:44:44.941Z,6.47
2023-02-06T13:48:05.774Z,7.13
2023-02-06T13:51:41.486Z,8.30
2023-02-06T13:55:00.146Z,7.87
2023-02-06T13:58:36.990Z,6.63
2023-02-06T14:01:40.662Z,7.17
2023-02-06T14:04:45.458Z,8.03
2023-02-06T14:07:54.580Z,6.30
2023-02-06T14:11:41.874Z,6.40
2023-02-06T14:15:00.907Z,8.67
2023-02-06T14:18:36.982Z,6.17
2023-02-06T14:22:08.156Z,8.97
2023-02-06T14:25:29.118Z,6.87
2023-02-06T14:28:47.387Z,6.47
2023-02-06T14:32:10.851Z,7.37
2023-02-06T14:35:30.913Z,5.60
2023-02-06T14:38:51.426Z,5.53
2023-02-06T14:41:53.911Z,8.13
2023-02-06T14:45:01.948Z,10.00
2023-02-06T14:48:07.014Z,7.30
2023-02-06T14:51:28.806Z,9.80
2023-02-06T14:54:34.417Z,10.27
2023-02-06T14:57:36.547Z,6.73
2023-02-06T15:00:39.306Z,6.50
2023-02-06T15:03:42.431Z,6.37
2023-02-06T15:06:55.318Z,5.57
2023-02-06T15:10:07.615Z,6.40
2023-02-06T15:13:35.095Z,5.90
2023-02-06T15:16:51.382Z,5.50
2023-02-06T15:19:53.425Z,6.97
2023-02-06T15:23:11.702Z,7.00
2023-02-06T15:26:21.512Z,7.67
2023-02-06T15:29:29.220Z,6.80
2023-02-06T15:32:37.970Z,8.77
2023-02-06T15:35:41.670Z,7.77
2023-02-06T15:38:43.794Z,8.30
2023-02-06T15:41:48.865Z,6.23
2023-02-06T15:44:52.318Z,8.93
2023-02-06T15:47:56.081Z,7.10
2023-02-06T15:51:16.359Z,11.40
2023-02-06T15:54:27.187Z,8.73
2023-02-06T15:57:40.804Z,9.70
2023-02-06T16:00:43.234Z,4.73
2023-02-06T16:03:48.835Z,6.63
2023-02-06T16:07:12.486Z,6.43
2023-02-06T16:10:22.505Z,7.90
2023-02-06T16:13:27.226Z,7.03
2023-02-06T16:16:29.677Z,5.90
2023-02-06T16:19:56.154Z,5.80
2023-02-06T16:23:26.350Z,10.03
2023-02-06T16:26:40.556Z,11.90
2023-02-06T16:29:48.219Z,8.40
2023-02-06T16:32:50.985Z,5.97
2023-02-06T16:35:53.092Z,7.00
2023-02-06T16:39:03.703Z,7.17
2023-02-06T16:42:06.574Z,8.70
2023-02-06T16:45:16.945Z,6.77
2023-02-06T16:48:19.031Z,5.57
2023-02-06T16:51:25.431Z,7.63
2023-02-06T16:54:32.466Z,4.40
2023-02-06T16:57:41.911Z,6.30
2023-02-06T17:00:44.266Z,8.57
2023-02-06T17:03:46.517Z,6.70
2023-02-06T17:06:48.925Z,5.87
2023-02-06T17:09:54.236Z,6.93
2023-02-06T17:12:56.546Z,6.20
2023-02-06T17:15:59.120Z,7.23
2023-02-06T17:19:01.311Z,6.73
2023-02-06T17:22:03.671Z,5.17
2023-02-06T17:25:07.778Z,8.93
2023-02-06T17:28:13.895Z,9.83
2023-02-06T17:31:16.762Z,8.60
2023-02-06T17:34:19.698Z,6.30
2023-02-06T17:37:21.862Z,7.13
2023-02-06T17:40:30.041Z,7.73
2023-02-06T17:43:33.798Z,6.07
2023-02-06T17:46:38.473Z,12.97
2023-02-06T17:49:40.840Z,6.97
2023-02-06T17:52:43.121Z,6.97
2023-02-06T17:55:45.833Z,10.57
2023-02-06T17:58:47.945Z,9.60
2023-02-06T18:01:50.011Z,8.70
2023-02-06T18:04:54.788Z,7.03
2023-02-06T18:07:57.250Z,7.10
2023-02-06T18:10:59.875Z,7.43
2023-02-06T18:14:02.508Z,8.30
2023-02-06T18:17:08.103Z,7.70
2023-02-06T18:20:11.710Z,7.70
2023-02-06T18:23:14.483Z,9.47
2023-02-06T18:26:17.206Z,8.63
2023-02-06T18:29:19.568Z,6.20
2023-02-06T18:32:22.419Z,7.33
2023-02-06T18:35:32.831Z,7.73
2023-02-06T18:38:38.045Z,5.73
2023-02-06T18:41:58.966Z,10.13
2023-02-06T18:45:04.035Z,8.60
2023-02-06T18:48:11.513Z,9.13
2023-02-06T18:51:15.507Z,9.43
2023-02-06T18:54:20.370Z,9.80
2023-02-06T18:57:23.196Z,7.13
2023-02-06T19:00:27.296Z,9.57
2023-02-06T19:03:30.221Z,7.93
2023-02-06T19:06:36.231Z,7.37
2023-02-06T19:09:39.605Z,10.07
2023-02-06T19:12:43.336Z,8.00
2023-02-06T19:15:46.248Z,7.50
2023-02-06T19:18:50.399Z,9.60
2023-02-06T19:21:53.492Z,9.23
2023-02-06T19:24:57.735Z,8.80
2023-02-06T19:28:02.090Z,10.63
2023-02-06T19:31:06.760Z,9.83
2023-02-06T19:34:13.814Z,8.47
2023-02-06T19:37:16.843Z,8.73
2023-02-06T19:40:22.968Z,11.47
2023-02-06T19:43:26.147Z,8.33
2023-02-06T19:46:29.269Z,10.80
2023-02-06T19:49:32.382Z,11.57
2023-02-06T19:52:35.868Z,9.80
2023-02-06T19:55:48.401Z,11.37
2023-02-06T19:59:02.204Z,10.97
2023-02-06T20:02:05.037Z,10.50
2023-02-06T20:05:08.453Z,11.50
2023-02-06T20:08:11.228Z,11.17
2023-02-06T20:11:17.737Z,9.13
2023-02-06T20:14:22.550Z,12.37
2023-02-06T20:17:27.056Z,10.50
2023-02-06T20:20:35.726Z,10.33
2023-02-06T20:23:41.340Z,10.87
2023-02-06T20:26:52.951Z,10.40
2023-02-06T20:29:56.786Z,10.87
2023-02-06T20:32:59.754Z,9.10
2023-02-06T20:36:10.003Z,10.07
2023-02-06T20:39:14.434Z,10.00
2023-02-06T20:42:19.969Z,13.40
2023-02-06T20:45:22.913Z,9.47
2023-02-06T20:48:26.370Z,10.30
2023-02-06T20:51:31.476Z,12.53
2023-02-06T20:54:34.149Z,11.07
2023-02-06T20:57:36.980Z,11.07
2023-02-06T21:00:39.447Z,11.40
2023-02-06T21:03:44.404Z,12.33
2023-02-06T21:06:48.740Z,11.10
2023-02-06T21:09:51.258Z,11.00
2023-02-06T21:12:54.477Z,12.33
2023-02-06T21:15:58.564Z,12.33
2023-02-06T21:19:04.611Z,13.73
2023-02-06T21:22:06.616Z,12.73
2023-02-06T21:25:08.720Z,12.27
2023-02-06T21:28:10.871Z,13.20
2023-02-06T21:31:18.374Z,12.93
2023-02-06T21:34:23.152Z,13.50
2023-02-06T21:37:25.402Z,14.47
2023-02-06T21:40:27.541Z,16.53
2023-02-06T21:43:29.553Z,10.63
2023-02-06T21:46:31.718Z,12.63
2023-02-06T21:49:33.929Z,15.03
2023-02-06T21:52:36.655Z,15.47
2023-02-06T21:55:45.451Z,16.87
2023-02-06T21:58:48.688Z,13.30
2023-02-06T22:01:50.720Z,13.80
2023-02-06T22:04:54.158Z,10.80
2023-02-06T22:07:57.052Z,15.07
2023-02-06T22:10:59.034Z,13.23
2023-02-06T22:14:04.266Z,14.03
2023-02-06T22:17:06.304Z,13.80
2023-02-06T22:20:08.696Z,13.80
2023-02-06T22:23:10.731Z,11.43
2023-02-06T22:26:15.335Z,13.97
2023-02-06T22:29:18.586Z,11.63
2023-02-06T22:32:20.803Z,12.60
2023-02-06T22:35:22.823Z,14.97
2023-02-06T22:38:24.865Z,17.43
2023-02-06T22:41:28.344Z,16.57
2023-02-06T22:44:30.343Z,13.33
2023-02-06T22:47:33.106Z,14.43
2023-02-06T22:50:36.207Z,18.73
2023-02-06T22:53:39.034Z,17.70
2023-02-06T22:56:42.771Z,16.87
2023-02-06T22:59:44.814Z,18.03
2023-02-06T23:02:47.929Z,12.73
2023-02-06T23:05:50.255Z,16.50
2023-02-06T23:08:52.374Z,16.77
2023-02-06T23:11:54.916Z,16.77
2023-02-06T23:14:57.075Z,17.87
2023-02-06T23:17:59.135Z,13.83
2023-02-06T23:21:04.497Z,17.10
2023-02-06T23:24:08.584Z,15.93
2023-02-06T23:27:10.661Z,17.03
2023-02-06T23:30:13.287Z,13.70
2023-02-06T23:33:15.850Z,16.03
2023-02-06T23:36:20.591Z,15.73
2023-02-06T23:39:22.950Z,14.93
2023-02-06T23:42:24.988Z,18.83
2023-02-06T23:45:27.573Z,18.33
2023-02-06T23:48:29.729Z,18.30
2023-02-06T23:51:33.103Z,18.17
2023-02-06T23:54:35.105Z,16.30
2023-02-06T23:57:38.731Z,18.40
